»·PEaware :: N9BR KBUR-KLAS

N9BR :: KBUR-KLAS

FLIGHT INFORMATION

Flight Status: Arrived
Operator: Privately registered:
United States
More flights under this callsign
Pilot: John H. (7647)
Aircraft: MOONEY M-20 201 202 205 220 ATS MSE
(M20P)
More flights by this aircraft type
Origin: KBUR Bob Hope-Burbank
United States
Destination: KLAS McCarran Intl
United States
More flights between these airports :: More routes between these airports
Route: +VNY3 DAG CRESO4
File this flight plan on PilotEdge
Remarks: I-5 Rating
Altitude:
(Current/Filed)
15,000ft
Speed:
(Current/Filed)
170kts
Departed: 07-Sep-18 06:02 PM
Arrived: 07-Sep-18 07:28 PM
Distance/Time
Traveled:
193nm/1:26
Distance/Time
To Go:
Arrived

Flight Plot

Page will automatically refresh every two minutes.

Flight plan parsing failed; only flown route is shown


Map Options




Map Legend


Flown Route
Filed Route
Departure Airport
Arrival Airport
Navaid (VOR, NDB)
Fix

Horizontal Profiles

Position Reports

Time Latitude Longitude Heading Altitude Ground
Speed
07-Sep-18 17:39 34.200203 -118.358745 263 721ft 0kts
07-Sep-18 17:40 34.200203 -118.358745 263 721ft 0kts
07-Sep-18 17:41 34.200203 -118.358745 263 721ft 0kts
07-Sep-18 17:42 34.200203 -118.358746 263 721ft 0kts
07-Sep-18 17:43 34.200203 -118.358746 263 721ft 0kts
07-Sep-18 17:44 34.200203 -118.358746 263 721ft 0kts
07-Sep-18 17:45 34.200203 -118.358746 263 721ft 0kts
07-Sep-18 17:46 34.200203 -118.358746 263 721ft 0kts
07-Sep-18 17:47 34.200203 -118.358746 263 721ft 0kts
07-Sep-18 17:48 34.200203 -118.358746 263 721ft 0kts
07-Sep-18 17:49 34.200203 -118.358746 263 721ft 0kts
07-Sep-18 17:50 34.200203 -118.358745 263 721ft 0kts
07-Sep-18 17:51 34.200203 -118.358746 263 721ft 0kts
07-Sep-18 17:52 34.200203 -118.358746 263 721ft 0kts
07-Sep-18 17:53 34.200203 -118.358746 263 721ft 0kts
07-Sep-18 17:54 34.200203 -118.358746 263 721ft 0kts
07-Sep-18 17:55 34.200203 -118.358746 263 721ft 0kts
07-Sep-18 17:56 34.200203 -118.358746 263 721ft 0kts
07-Sep-18 17:57 34.200134 -118.358865 206 721ft 1kts
07-Sep-18 17:58 34.200506 -118.358335 346 721ft 7kts
07-Sep-18 17:59 34.202146 -118.358816 347 727ft 5kts
07-Sep-18 18:00 34.203843 -118.359281 347 733ft 7kts
07-Sep-18 18:01 34.206007 -118.359879 348 740ft 8kts
07-Sep-18 18:02 34.208584 -118.360583 347 747ft 10kts
07-Sep-18 18:03 34.209601 -118.360651 51 749ft 0kts
07-Sep-18 18:04 34.203918 -118.358211 170 751ft 80kts
07-Sep-18 18:05 34.179797 -118.369875 229 1414ft 121kts
07-Sep-18 18:06 34.155338 -118.400989 225 2260ft 134kts
07-Sep-18 18:07 34.132206 -118.434165 273 3557ft 131kts
07-Sep-18 18:07 34.160523 -118.451174 350 4014ft 177kts
07-Sep-18 18:08 34.203807 -118.458092 351 5472ft 143kts
07-Sep-18 18:09 34.243462 -118.465302 351 6496ft 147kts
07-Sep-18 18:11 34.289427 -118.476394 351 7694ft 145kts
07-Sep-18 18:11 34.322477 -118.484682 351 8432ft 147kts
07-Sep-18 18:12 34.361515 -118.487060 41 9256ft 142kts
07-Sep-18 18:13 34.388174 -118.452880 56 10049ft 141kts
07-Sep-18 18:14 34.411509 -118.415581 57 10692ft 148kts
07-Sep-18 18:15 34.436073 -118.376420 58 11280ft 155kts
07-Sep-18 18:16 34.461550 -118.335761 56 11727ft 165kts
07-Sep-18 18:17 34.488257 -118.293176 54 12206ft 170kts
07-Sep-18 18:18 34.515738 -118.249294 49 12880ft 162kts
07-Sep-18 18:19 34.541724 -118.207778 47 13535ft 153kts
07-Sep-18 18:20 34.567223 -118.167034 47 14030ft 154kts
07-Sep-18 18:21 34.593207 -118.125400 47 14451ft 155kts
07-Sep-18 18:22 34.619019 -118.084008 47 14916ft 156kts
07-Sep-18 18:23 34.634559 -118.034171 77 14976ft 181kts
07-Sep-18 18:24 34.641010 -117.977295 78 14951ft 183kts
07-Sep-18 18:25 34.647579 -117.917461 78 14950ft 182kts
07-Sep-18 18:26 34.654059 -117.857985 78 14948ft 182kts
07-Sep-18 18:27 34.660566 -117.797859 78 14948ft 182kts
07-Sep-18 18:28 34.670561 -117.739115 67 14948ft 180kts
07-Sep-18 18:29 34.685351 -117.681556 68 14948ft 179kts
07-Sep-18 18:30 34.699829 -117.625087 68 14950ft 180kts
07-Sep-18 18:32 34.714400 -117.568095 68 15000ft 177kts
07-Sep-18 18:33 34.725953 -117.522896 67 15003ft 178kts
07-Sep-18 18:34 34.735698 -117.484686 68 15003ft 178kts
07-Sep-18 18:35 34.749937 -117.428724 68 15002ft 178kts
07-Sep-18 18:36 34.764304 -117.372129 68 15001ft 180kts
07-Sep-18 18:37 34.778267 -117.317016 68 15004ft 179kts
07-Sep-18 18:38 34.792963 -117.258912 69 14995ft 184kts
07-Sep-18 18:39 34.807941 -117.199525 69 14919ft 190kts
07-Sep-18 18:40 34.823330 -117.138296 69 14922ft 189kts
07-Sep-18 18:41 34.838015 -117.079813 69 14985ft 188kts
07-Sep-18 18:42 34.853229 -117.019081 69 14983ft 189kts
07-Sep-18 18:43 34.868486 -116.958020 69 14990ft 190kts
07-Sep-18 18:44 34.883761 -116.896742 69 14985ft 190kts
07-Sep-18 18:45 34.898879 -116.835960 69 14986ft 191kts
07-Sep-18 18:46 34.911286 -116.785955 69 14985ft 190kts
07-Sep-18 18:47 34.922577 -116.740373 69 14981ft 190kts
07-Sep-18 18:48 34.933674 -116.695467 69 14985ft 188kts
07-Sep-18 18:49 34.948363 -116.635924 69 14981ft 184kts
07-Sep-18 18:50 34.963358 -116.577078 61 15032ft 178kts
07-Sep-18 18:51 34.986328 -116.524922 56 15040ft 177kts
07-Sep-18 18:52 35.008058 -116.476077 56 15039ft 177kts
07-Sep-18 18:53 35.031432 -116.423428 57 15040ft 177kts
07-Sep-18 18:54 35.054721 -116.370855 57 15039ft 176kts
07-Sep-18 18:55 35.076860 -116.320855 57 15036ft 176kts
07-Sep-18 18:56 35.100042 -116.268407 57 15037ft 175kts
07-Sep-18 18:57 35.121708 -116.219304 57 15039ft 176kts
07-Sep-18 18:58 35.144801 -116.166896 57 15040ft 176kts
07-Sep-18 18:59 35.167560 -116.115129 57 15039ft 174kts
07-Sep-18 19:00 35.190297 -116.063360 57 15039ft 173kts
07-Sep-18 19:01 35.212930 -116.011802 58 15040ft 173kts
07-Sep-18 19:02 35.235595 -115.960015 57 15040ft 174kts
07-Sep-18 19:03 35.258370 -115.908042 57 15040ft 174kts
07-Sep-18 19:04 35.280461 -115.857487 57 15040ft 173kts
07-Sep-18 19:05 35.303148 -115.805310 58 15039ft 171kts
07-Sep-18 19:06 35.332241 -115.758601 43 14312ft 184kts
07-Sep-18 19:07 35.366583 -115.712809 43 13441ft 182kts
07-Sep-18 19:08 35.400157 -115.667966 42 12413ft 179kts
07-Sep-18 19:09 35.432993 -115.624164 45 11521ft 172kts
07-Sep-18 19:10 35.464637 -115.581827 45 10659ft 166kts
07-Sep-18 19:11 35.495127 -115.541023 47 10013ft 158kts
07-Sep-18 19:12 35.523551 -115.502995 47 10012ft 150kts
07-Sep-18 19:13 35.552229 -115.464548 47 10009ft 157kts
07-Sep-18 19:14 35.582225 -115.424272 47 10015ft 162kts
07-Sep-18 19:15 35.612715 -115.383337 47 10007ft 164kts
07-Sep-18 19:16 35.642535 -115.343065 47 10009ft 164kts
07-Sep-18 19:17 35.671150 -115.304413 47 10021ft 165kts
07-Sep-18 19:18 35.701898 -115.262915 47 10021ft 164kts
07-Sep-18 19:19 35.731912 -115.222378 47 10024ft 159kts
07-Sep-18 19:20 35.766888 -115.204564 341 10021ft 149kts
07-Sep-18 19:21 35.806985 -115.222926 341 9353ft 158kts
07-Sep-18 19:22 35.849428 -115.242028 341 7135ft 166kts
07-Sep-18 19:23 35.886815 -115.259256 341 6896ft 125kts
07-Sep-18 19:24 35.916962 -115.260223 24 6899ft 113kts
07-Sep-18 19:25 35.948774 -115.242582 25 6505ft 156kts
07-Sep-18 19:26 35.986771 -115.220884 26 5817ft 177kts
07-Sep-18 19:27 36.028323 -115.196674 23 3376ft 155kts
07-Sep-18 19:28 36.060230 -115.179202 29 2574ft 105kts
07-Sep-18 19:29 36.080387 -115.167471 22 2162ft 57kts
07-Sep-18 19:30 36.086474 -115.164057 26 2139ft 25kts
07-Sep-18 19:31 36.089300 -115.163265 304 2130ft 0kts
07-Sep-18 19:32 36.090092 -115.164406 26 2132ft 15kts
07-Sep-18 19:33 36.091122 -115.164395 331 2130ft 0kts
07-Sep-18 19:34 36.091122 -115.164395 331 2130ft 0kts
07-Sep-18 19:35 36.091122 -115.164395 331 2130ft 0kts

Navigation Log

Ident Type
Flight plan parsing failed, navigation log unavailable